createdAt,value
2022-08-23T00:02:26.862Z,17.00
2022-08-23T00:05:07.933Z,17.00
2022-08-23T00:07:39.115Z,17.00
2022-08-23T00:10:08.982Z,17.00
2022-08-23T00:12:36.209Z,17.00
2022-08-23T00:15:04.227Z,17.00
2022-08-23T00:17:34.047Z,17.00
2022-08-23T00:20:07.943Z,17.00
2022-08-23T00:22:35.790Z,16.90
2022-08-23T00:25:02.804Z,16.80
2022-08-23T00:27:29.503Z,16.70
2022-08-23T00:29:57.397Z,16.70
2022-08-23T00:32:25.239Z,16.70
2022-08-23T00:34:52.490Z,16.70
2022-08-23T00:37:20.379Z,16.70
2022-08-23T00:39:47.263Z,16.70
2022-08-23T00:42:55.328Z,16.60
2022-08-23T00:45:57.706Z,16.60
2022-08-23T00:48:24.861Z,16.50
2022-08-23T00:51:15.243Z,16.50
2022-08-23T00:53:47.420Z,16.50
2022-08-23T00:56:17.972Z,16.40
2022-08-23T00:58:46.293Z,16.40
2022-08-23T01:01:14.103Z,16.30
2022-08-23T01:03:44.815Z,16.30
2022-08-23T01:06:22.659Z,16.20
2022-08-23T01:08:59.593Z,16.20
2022-08-23T01:11:36.613Z,16.20
2022-08-23T01:14:11.544Z,16.20
2022-08-23T01:16:50.481Z,16.20
2022-08-23T01:19:31.890Z,16.10
2022-08-23T01:22:07.614Z,16.10
2022-08-23T01:25:05.903Z,16.10
2022-08-23T01:27:22.221Z,16.10
2022-08-23T01:29:48.862Z,16.00
2022-08-23T01:32:16.507Z,16.00
2022-08-23T01:34:45.410Z,16.00
2022-08-23T01:37:20.600Z,16.10
2022-08-23T01:39:47.494Z,16.10
2022-08-23T01:42:14.396Z,16.00
2022-08-23T01:44:41.092Z,16.00
2022-08-23T01:47:07.746Z,16.00
2022-08-23T01:49:35.075Z,15.90
2022-08-23T01:52:01.897Z,15.90
2022-08-23T01:54:29.256Z,15.80
2022-08-23T01:56:56.480Z,15.90
2022-08-23T01:59:24.151Z,15.80
2022-08-23T02:01:51.528Z,15.80
2022-08-23T02:04:18.292Z,15.80
2022-08-23T02:06:45.221Z,15.80
2022-08-23T02:09:17.482Z,15.80
2022-08-23T02:11:45.427Z,15.90
2022-08-23T02:14:15.546Z,15.90
2022-08-23T02:16:58.098Z,15.80
2022-08-23T02:19:32.688Z,15.90
2022-08-23T02:21:59.592Z,15.80
2022-08-23T02:24:26.979Z,15.80
2022-08-23T02:26:57.272Z,15.80
2022-08-23T02:29:29.446Z,15.80
2022-08-23T02:31:57.503Z,15.70
2022-08-23T02:34:25.019Z,15.70
2022-08-23T02:36:54.550Z,15.70
2022-08-23T02:39:21.304Z,15.60
2022-08-23T02:41:48.388Z,15.50
2022-08-23T02:44:15.472Z,15.50
2022-08-23T02:46:42.733Z,15.40
2022-08-23T02:49:09.941Z,15.50
2022-08-23T02:51:36.695Z,15.50
2022-08-23T02:54:04.166Z,15.60
2022-08-23T02:56:31.011Z,15.50
2022-08-23T02:58:57.817Z,15.60
2022-08-23T03:01:28.722Z,15.60
2022-08-23T03:03:56.336Z,15.60
2022-08-23T03:06:24.661Z,15.50
2022-08-23T03:08:53.535Z,15.50
2022-08-23T03:11:21.890Z,15.50
2022-08-23T03:13:49.525Z,15.50
2022-08-23T03:16:17.418Z,15.50
2022-08-23T03:18:44.057Z,15.50
2022-08-23T03:21:11.495Z,15.50
2022-08-23T03:23:39.628Z,15.40
2022-08-23T03:26:08.976Z,15.40
2022-08-23T03:28:37.072Z,15.40
2022-08-23T03:31:04.385Z,15.40
2022-08-23T03:33:31.064Z,15.40
2022-08-23T03:36:03.210Z,15.40
2022-08-23T03:38:29.979Z,15.40
2022-08-23T03:40:57.035Z,15.30
2022-08-23T03:43:23.664Z,15.20
2022-08-23T03:45:50.505Z,15.20
2022-08-23T03:48:17.911Z,15.10
2022-08-23T03:50:44.847Z,15.10
2022-08-23T03:53:13.009Z,15.10
2022-08-23T03:55:42.654Z,15.10
2022-08-23T03:58:10.883Z,15.10
2022-08-23T04:00:37.929Z,15.10
2022-08-23T04:03:05.117Z,15.10
2022-08-23T04:05:31.920Z,15.20
2022-08-23T04:07:58.846Z,15.10
2022-08-23T04:10:25.943Z,15.10
2022-08-23T04:12:54.723Z,15.10
2022-08-23T04:15:21.872Z,15.00
2022-08-23T04:17:48.614Z,15.00
2022-08-23T04:20:15.531Z,15.00
2022-08-23T04:22:42.910Z,14.90
2022-08-23T04:25:33.762Z,14.90
2022-08-23T04:28:00.573Z,15.00
2022-08-23T04:30:27.613Z,15.00
2022-08-23T04:32:54.381Z,15.00
2022-08-23T04:35:22.402Z,15.00
2022-08-23T04:37:49.359Z,14.90
2022-08-23T04:40:34.810Z,14.90
2022-08-23T04:43:02.162Z,14.90
2022-08-23T04:45:29.427Z,14.90
2022-08-23T04:47:56.576Z,14.90
2022-08-23T04:50:23.615Z,14.90
2022-08-23T04:52:50.369Z,14.80
2022-08-23T04:55:17.149Z,14.90
2022-08-23T04:57:44.673Z,14.90
2022-08-23T05:00:13.485Z,14.90
2022-08-23T05:02:40.351Z,14.90
2022-08-23T05:05:08.317Z,14.90
2022-08-23T05:07:42.371Z,14.90
2022-08-23T05:10:12.797Z,14.70
2022-08-23T05:12:40.184Z,14.70
2022-08-23T05:15:08.600Z,14.70
2022-08-23T05:17:36.262Z,14.60
2022-08-23T05:20:03.606Z,14.60
2022-08-23T05:22:34.306Z,14.60
2022-08-23T05:25:01.311Z,14.70
2022-08-23T05:27:27.976Z,14.70
2022-08-23T05:29:54.665Z,14.80
2022-08-23T05:32:22.684Z,14.90
2022-08-23T05:34:49.662Z,14.90
2022-08-23T05:37:16.904Z,15.00
2022-08-23T05:39:44.075Z,15.10
2022-08-23T05:42:14.109Z,15.10
2022-08-23T05:44:40.886Z,15.20
2022-08-23T05:47:11.555Z,15.20
2022-08-23T05:49:39.771Z,15.30
2022-08-23T05:52:08.917Z,15.30
2022-08-23T05:54:36.118Z,15.30
2022-08-23T05:57:02.835Z,15.30
2022-08-23T05:59:29.682Z,15.30
2022-08-23T06:01:56.977Z,15.30
2022-08-23T06:04:24.017Z,15.30
2022-08-23T06:06:50.767Z,15.30
2022-08-23T06:09:18.548Z,15.30
2022-08-23T06:11:47.946Z,15.30
2022-08-23T06:14:15.944Z,15.40
2022-08-23T06:16:46.897Z,15.50
2022-08-23T06:19:14.917Z,15.60
2022-08-23T06:21:43.082Z,15.60
2022-08-23T06:24:10.518Z,15.70
2022-08-23T06:26:40.511Z,15.80
2022-08-23T06:29:11.161Z,15.90
2022-08-23T06:31:46.872Z,16.00
2022-08-23T06:34:20.706Z,16.00
2022-08-23T06:36:57.095Z,16.20
2022-08-23T06:39:25.614Z,16.20
2022-08-23T06:41:53.175Z,16.30
2022-08-23T06:44:20.446Z,16.30
2022-08-23T06:46:49.065Z,16.40
2022-08-23T06:49:15.980Z,16.50
2022-08-23T06:51:46.170Z,16.50
2022-08-23T06:54:14.554Z,16.60
2022-08-23T06:56:43.000Z,16.70
2022-08-23T06:59:09.810Z,16.80
2022-08-23T07:01:47.532Z,16.80
2022-08-23T07:04:17.243Z,16.90
2022-08-23T07:06:44.174Z,16.90
2022-08-23T07:09:11.209Z,17.00
2022-08-23T07:11:39.380Z,17.10
2022-08-23T07:14:08.906Z,17.10
2022-08-23T07:16:39.136Z,17.20
2022-08-23T07:19:06.376Z,17.30
2022-08-23T07:21:33.691Z,17.30
2022-08-23T07:24:00.413Z,17.40
2022-08-23T07:26:27.592Z,17.50
2022-08-23T07:28:57.052Z,17.50
2022-08-23T07:31:30.874Z,17.60
2022-08-23T07:34:04.439Z,17.70
2022-08-23T07:36:32.861Z,17.80
2022-08-23T07:39:00.319Z,17.80
2022-08-23T07:41:32.901Z,17.90
2022-08-23T07:44:02.181Z,17.90
2022-08-23T07:46:31.280Z,18.00
2022-08-23T07:49:00.127Z,18.00
2022-08-23T07:51:27.786Z,18.20
2022-08-23T07:53:54.514Z,18.20
2022-08-23T07:56:21.755Z,18.20
2022-08-23T07:58:48.407Z,18.30
2022-08-23T08:01:23.792Z,18.40
2022-08-23T08:03:53.892Z,18.40
2022-08-23T08:06:41.880Z,18.50
2022-08-23T08:09:10.110Z,18.50
2022-08-23T08:11:37.363Z,18.60
2022-08-23T08:14:09.350Z,18.60
2022-08-23T08:16:40.617Z,18.60
2022-08-23T08:19:10.056Z,18.70
2022-08-23T08:21:42.159Z,18.80
2022-08-23T08:24:10.483Z,18.80
2022-08-23T08:26:37.234Z,18.90
2022-08-23T08:29:05.158Z,19.00
2022-08-23T08:31:32.579Z,19.10
2022-08-23T08:33:59.496Z,19.10
2022-08-23T08:36:39.211Z,19.10
2022-08-23T08:39:10.480Z,19.20
2022-08-23T08:42:00.385Z,19.30
2022-08-23T08:44:47.322Z,19.40
2022-08-23T08:47:39.353Z,19.40
2022-08-23T08:50:05.929Z,19.50
2022-08-23T08:52:41.987Z,19.60
2022-08-23T08:55:14.482Z,19.70
2022-08-23T08:57:46.220Z,19.80
2022-08-23T09:00:22.367Z,19.90
2022-08-23T09:02:50.405Z,20.00
2022-08-23T09:05:26.786Z,20.10
2022-08-23T09:08:22.839Z,20.10
2022-08-23T09:11:26.495Z,20.20
2022-08-23T09:14:05.058Z,20.30
2022-08-23T09:16:43.879Z,20.40
2022-08-23T09:19:11.092Z,20.50
2022-08-23T09:22:13.447Z,20.60
2022-08-23T09:24:41.295Z,20.70
2022-08-23T09:27:10.014Z,20.80
2022-08-23T09:29:40.066Z,20.90
2022-08-23T09:32:32.941Z,21.00
2022-08-23T09:35:19.952Z,21.10
2022-08-23T09:38:01.541Z,21.20
2022-08-23T09:40:34.144Z,21.30
2022-08-23T09:43:18.026Z,21.30
2022-08-23T09:45:50.611Z,21.40
2022-08-23T09:48:41.596Z,21.50
2022-08-23T09:51:30.428Z,21.60
2022-08-23T09:54:17.814Z,21.70
2022-08-23T09:56:57.084Z,21.80
2022-08-23T09:59:26.762Z,21.80
2022-08-23T10:01:58.933Z,21.90
2022-08-23T10:04:37.640Z,22.00
2022-08-23T10:07:38.591Z,22.10
2022-08-23T10:10:43.566Z,22.20
2022-08-23T10:13:13.051Z,22.40
2022-08-23T10:16:04.605Z,22.60
2022-08-23T10:18:51.117Z,22.70
2022-08-23T10:21:39.138Z,22.80
2022-08-23T10:24:22.584Z,22.80
2022-08-23T10:27:29.767Z,23.00
2022-08-23T10:30:10.770Z,23.00
2022-08-23T10:33:02.444Z,23.10
2022-08-23T10:35:38.358Z,23.10
2022-08-23T10:38:23.514Z,23.20
2022-08-23T10:41:27.086Z,23.30
2022-08-23T10:44:15.878Z,23.40
2022-08-23T10:47:16.291Z,23.50
2022-08-23T10:49:43.974Z,23.50
2022-08-23T10:52:17.116Z,23.60
2022-08-23T10:54:59.596Z,23.60
2022-08-23T10:57:37.293Z,23.70
2022-08-23T11:00:18.525Z,23.70
2022-08-23T11:02:54.725Z,23.80
2022-08-23T11:05:21.631Z,23.80
2022-08-23T11:08:07.167Z,23.80
2022-08-23T11:10:39.712Z,23.80
2022-08-23T11:13:18.407Z,23.80
2022-08-23T11:15:47.102Z,23.90
2022-08-23T11:18:35.482Z,23.90
2022-08-23T11:21:31.621Z,23.90
2022-08-23T11:23:58.441Z,24.00
2022-08-23T11:26:28.314Z,24.10
2022-08-23T11:29:20.892Z,24.10
2022-08-23T11:32:13.196Z,24.20
2022-08-23T11:35:05.370Z,24.20
2022-08-23T11:37:55.790Z,24.30
2022-08-23T11:40:42.512Z,24.30
2022-08-23T11:43:31.766Z,24.30
2022-08-23T11:46:23.920Z,24.30
2022-08-23T11:49:15.770Z,24.30
2022-08-23T11:52:24.512Z,24.30
2022-08-23T11:55:00.054Z,24.40
2022-08-23T11:57:29.500Z,24.40
2022-08-23T12:00:14.936Z,24.40
2022-08-23T12:03:05.962Z,24.40
2022-08-23T12:05:38.737Z,24.50
2022-08-23T12:08:08.221Z,24.60
2022-08-23T12:10:40.607Z,24.60
2022-08-23T12:13:22.374Z,24.70
2022-08-23T12:16:16.179Z,24.70
2022-08-23T12:18:48.934Z,24.70
2022-08-23T12:21:33.309Z,24.70
2022-08-23T12:24:13.398Z,24.70
2022-08-23T12:27:02.472Z,24.70
2022-08-23T12:29:54.848Z,24.70
2022-08-23T12:32:36.324Z,24.70
2022-08-23T12:35:18.932Z,24.70
2022-08-23T12:38:04.252Z,24.70
2022-08-23T12:40:36.507Z,24.70
2022-08-23T12:43:16.721Z,24.80
2022-08-23T12:45:58.338Z,24.80
2022-08-23T12:48:33.488Z,24.80
2022-08-23T12:51:10.467Z,24.90
2022-08-23T12:53:44.976Z,25.00
2022-08-23T12:56:19.191Z,24.90
2022-08-23T12:58:54.017Z,24.90
2022-08-23T13:01:30.003Z,24.90
2022-08-23T13:04:09.157Z,25.00
2022-08-23T13:06:43.730Z,25.00
2022-08-23T13:09:25.002Z,25.00
2022-08-23T13:11:52.353Z,25.00
2022-08-23T13:14:45.263Z,25.00
2022-08-23T13:17:27.399Z,25.10
2022-08-23T13:20:17.092Z,25.10
2022-08-23T13:23:05.508Z,25.30
2022-08-23T13:25:42.709Z,25.30
2022-08-23T13:28:23.400Z,25.40
2022-08-23T13:31:06.149Z,25.50
2022-08-23T13:33:32.889Z,25.40
2022-08-23T13:36:13.747Z,25.40
2022-08-23T13:38:43.153Z,25.40
2022-08-23T13:41:26.207Z,25.50
2022-08-23T13:43:53.203Z,25.60
2022-08-23T13:46:28.501Z,25.60
2022-08-23T13:49:11.768Z,25.60
2022-08-23T13:51:45.272Z,25.50
2022-08-23T13:54:14.084Z,25.50
2022-08-23T13:56:51.735Z,25.60
2022-08-23T13:59:31.313Z,25.60
2022-08-23T14:02:02.701Z,25.50
2022-08-23T14:04:29.426Z,25.60
2022-08-23T14:06:56.248Z,25.60
2022-08-23T14:09:22.905Z,25.60
2022-08-23T14:11:56.486Z,25.60
2022-08-23T14:14:24.393Z,25.60
2022-08-23T14:16:53.525Z,25.60
2022-08-23T14:22:07.048Z,25.70
2022-08-23T14:24:33.979Z,25.70
2022-08-23T14:27:01.164Z,25.70
2022-08-23T14:29:28.547Z,25.70
2022-08-23T14:31:57.049Z,25.70
2022-08-23T14:34:24.121Z,25.70
2022-08-23T14:39:39.099Z,25.70
2022-08-23T14:42:06.273Z,25.70
2022-08-23T14:44:36.332Z,25.70
2022-08-23T14:47:04.808Z,25.70
2022-08-23T14:49:32.564Z,25.70
2022-08-23T14:51:59.566Z,25.70
2022-08-23T14:54:28.179Z,25.80
2022-08-23T14:56:54.873Z,25.70
2022-08-23T14:59:21.995Z,25.70
2022-08-23T15:01:52.164Z,25.70
2022-08-23T15:04:21.638Z,25.80
2022-08-23T15:07:16.045Z,25.70
2022-08-23T15:09:36.532Z,25.80
2022-08-23T15:14:50.214Z,25.80
2022-08-23T15:17:17.018Z,25.80
2022-08-23T15:19:43.899Z,25.90
2022-08-23T15:22:21.465Z,25.90
2022-08-23T15:24:49.520Z,25.80
2022-08-23T15:27:17.894Z,25.90
2022-08-23T15:29:44.702Z,25.90
2022-08-23T15:32:12.706Z,25.90
2022-08-23T15:34:40.100Z,25.90
2022-08-23T15:37:14.901Z,25.90
2022-08-23T15:39:42.507Z,25.90
2022-08-23T15:42:09.519Z,25.90
2022-08-23T15:44:36.281Z,25.90
2022-08-23T15:47:05.590Z,25.90
2022-08-23T15:49:36.240Z,25.80
2022-08-23T15:52:04.114Z,25.80
2022-08-23T15:54:30.883Z,25.80
2022-08-23T15:56:57.914Z,25.80
2022-08-23T15:59:25.028Z,25.80
2022-08-23T16:01:52.105Z,25.80
2022-08-23T16:04:19.139Z,25.80
2022-08-23T16:06:46.304Z,25.80
2022-08-23T16:09:19.648Z,25.70
2022-08-23T16:11:46.439Z,25.70
2022-08-23T16:14:13.625Z,25.70
2022-08-23T16:16:42.045Z,25.70
2022-08-23T16:19:09.742Z,25.70
2022-08-23T16:21:36.566Z,25.70
2022-08-23T16:24:03.466Z,25.80
2022-08-23T16:26:35.157Z,25.80
2022-08-23T16:29:07.132Z,25.70
2022-08-23T16:31:38.638Z,25.70
2022-08-23T16:34:09.373Z,25.70
2022-08-23T16:36:36.454Z,25.60
2022-08-23T16:39:03.606Z,25.60
2022-08-23T16:41:30.300Z,25.60
2022-08-23T16:43:57.026Z,25.60
2022-08-23T16:46:24.533Z,25.50
2022-08-23T16:48:51.263Z,25.50
2022-08-23T16:51:18.923Z,25.50
2022-08-23T16:53:45.751Z,25.50
2022-08-23T16:56:29.717Z,25.40
2022-08-23T16:58:57.420Z,25.50
2022-08-23T17:01:24.499Z,25.50
2022-08-23T17:03:51.458Z,25.40
2022-08-23T17:06:18.234Z,25.40
2022-08-23T17:08:45.241Z,25.40
2022-08-23T17:11:15.613Z,25.40
2022-08-23T17:13:42.412Z,25.30
2022-08-23T17:16:10.886Z,25.30
2022-08-23T17:18:38.544Z,25.30
2022-08-23T17:21:06.005Z,25.20
2022-08-23T17:23:33.199Z,25.20
2022-08-23T17:26:03.693Z,25.20
2022-08-23T17:28:31.613Z,25.20
2022-08-23T17:30:59.217Z,25.10
2022-08-23T17:33:25.944Z,25.00
2022-08-23T17:35:52.788Z,25.00
2022-08-23T17:38:20.823Z,25.00
2022-08-23T17:40:47.673Z,25.00
2022-08-23T17:43:14.423Z,24.90
2022-08-23T17:45:46.922Z,24.90
2022-08-23T17:48:15.227Z,24.80
2022-08-23T17:50:43.453Z,24.80
2022-08-23T17:53:12.256Z,24.80
2022-08-23T17:55:40.726Z,24.80
2022-08-23T17:58:10.008Z,24.70
2022-08-23T18:00:38.542Z,24.70
2022-08-23T18:03:05.848Z,24.60
2022-08-23T18:05:37.297Z,24.60
2022-08-23T18:08:04.593Z,24.60
2022-08-23T18:10:31.592Z,24.50
2022-08-23T18:12:58.659Z,24.40
2022-08-23T18:15:26.855Z,24.40
2022-08-23T18:17:57.563Z,24.30
2022-08-23T18:20:26.902Z,24.20
2022-08-23T18:22:55.180Z,24.10
2022-08-23T18:25:22.116Z,24.00
2022-08-23T18:28:07.382Z,23.90
2022-08-23T18:30:37.817Z,23.90
2022-08-23T18:33:06.311Z,23.70
2022-08-23T18:35:34.480Z,23.70
2022-08-23T18:38:01.350Z,23.60
2022-08-23T18:40:29.331Z,23.60
2022-08-23T18:42:56.286Z,23.50
2022-08-23T18:45:23.119Z,23.40
2022-08-23T18:47:49.919Z,23.40
2022-08-23T18:50:17.380Z,23.20
2022-08-23T18:52:44.356Z,23.10
2022-08-23T18:55:11.307Z,23.00
2022-08-23T18:57:38.917Z,22.90
2022-08-23T19:00:08.567Z,22.80
2022-08-23T19:02:35.640Z,22.70
2022-08-23T19:05:03.198Z,22.40
2022-08-23T19:07:29.984Z,22.40
2022-08-23T19:09:56.678Z,22.30
2022-08-23T19:12:23.565Z,22.30
2022-08-23T19:14:50.235Z,22.20
2022-08-23T19:17:16.954Z,22.10
2022-08-23T19:19:43.682Z,22.00
2022-08-23T19:22:10.440Z,21.90
2022-08-23T19:24:37.062Z,21.80
2022-08-23T19:27:03.991Z,21.80
2022-08-23T19:29:32.401Z,21.80
2022-08-23T19:31:59.229Z,21.70
2022-08-23T19:34:26.778Z,21.70
2022-08-23T19:37:00.843Z,21.70
2022-08-23T19:39:28.868Z,21.70
2022-08-23T19:41:55.691Z,21.60
2022-08-23T19:44:22.592Z,21.50
2022-08-23T19:46:49.905Z,21.40
2022-08-23T19:49:16.627Z,21.40
2022-08-23T19:51:44.190Z,21.20
2022-08-23T19:54:12.609Z,21.00
2022-08-23T19:56:48.463Z,21.00
2022-08-23T19:59:23.028Z,20.90
2022-08-23T20:01:53.867Z,20.80
2022-08-23T20:04:22.272Z,20.80
2022-08-23T20:06:50.480Z,20.70
2022-08-23T20:09:18.900Z,20.60
2022-08-23T20:11:45.605Z,20.50
2022-08-23T20:14:12.565Z,20.40
2022-08-23T20:16:41.438Z,20.30
2022-08-23T20:19:09.300Z,20.30
2022-08-23T20:21:36.441Z,20.30
2022-08-23T20:24:04.022Z,20.30
2022-08-23T20:26:45.468Z,20.40
2022-08-23T20:29:18.433Z,20.20
2022-08-23T20:31:52.207Z,20.10
2022-08-23T20:34:19.313Z,20.00
2022-08-23T20:36:46.750Z,19.90
2022-08-23T20:39:13.480Z,19.70
2022-08-23T20:41:41.449Z,19.70
2022-08-23T20:44:09.261Z,19.60
2022-08-23T20:46:36.175Z,19.50
2022-08-23T20:49:03.929Z,19.50
2022-08-23T20:51:31.544Z,19.50
2022-08-23T20:54:04.456Z,19.50
2022-08-23T20:56:31.319Z,19.40
2022-08-23T20:58:57.966Z,19.30
2022-08-23T21:01:24.955Z,19.40
2022-08-23T21:03:51.703Z,19.30
2022-08-23T21:06:20.761Z,19.30
2022-08-23T21:08:53.508Z,19.20
2022-08-23T21:11:21.862Z,19.20
2022-08-23T21:13:48.686Z,19.10
2022-08-23T21:16:16.748Z,19.00
2022-08-23T21:18:44.096Z,19.00
2022-08-23T21:21:11.397Z,19.00
2022-08-23T21:23:38.464Z,19.00
2022-08-23T21:26:08.193Z,18.80
2022-08-23T21:28:36.167Z,18.80
2022-08-23T21:31:11.872Z,18.80
2022-08-23T21:33:40.351Z,18.70
2022-08-23T21:36:10.529Z,18.70
2022-08-23T21:38:37.815Z,18.70
2022-08-23T21:41:08.576Z,18.60
2022-08-23T21:43:39.226Z,18.50
2022-08-23T21:46:07.030Z,18.50
2022-08-23T21:48:34.298Z,18.40
2022-08-23T21:51:01.028Z,18.50
2022-08-23T21:53:27.790Z,18.40
2022-08-23T21:55:54.447Z,18.40
2022-08-23T21:58:21.360Z,18.40
2022-08-23T22:00:48.082Z,18.30
2022-08-23T22:03:15.166Z,18.30
2022-08-23T22:05:43.626Z,18.30
2022-08-23T22:08:14.103Z,18.20
2022-08-23T22:10:50.115Z,18.20
2022-08-23T22:13:24.134Z,18.10
2022-08-23T22:15:50.826Z,18.10
2022-08-23T22:18:17.577Z,18.00
2022-08-23T22:20:44.249Z,18.00
2022-08-23T22:23:11.300Z,17.90
2022-08-23T22:25:37.957Z,17.90
2022-08-23T22:28:04.600Z,17.90
2022-08-23T22:30:31.395Z,17.90
2022-08-23T22:32:58.144Z,17.80
2022-08-23T22:35:25.115Z,17.80
2022-08-23T22:38:14.646Z,17.70
2022-08-23T22:40:39.351Z,17.60
2022-08-23T22:43:06.138Z,17.40
2022-08-23T22:45:32.796Z,17.30
2022-08-23T22:47:59.611Z,17.30
2022-08-23T22:50:26.264Z,17.20
2022-08-23T22:52:52.897Z,17.20
2022-08-23T22:55:19.557Z,17.20
2022-08-23T22:57:46.229Z,17.20
2022-08-23T23:00:13.099Z,17.20
2022-08-23T23:02:40.809Z,17.10
2022-08-23T23:05:07.927Z,17.00
2022-08-23T23:07:52.955Z,17.00
2022-08-23T23:10:19.683Z,17.00
2022-08-23T23:12:46.814Z,16.90
2022-08-23T23:15:13.532Z,16.90
2022-08-23T23:17:40.199Z,16.80
2022-08-23T23:20:25.965Z,16.80
2022-08-23T23:22:52.736Z,16.90
2022-08-23T23:25:19.950Z,16.80
2022-08-23T23:27:46.610Z,16.80
2022-08-23T23:30:13.884Z,16.70
2022-08-23T23:32:40.816Z,16.70
2022-08-23T23:35:10.595Z,16.60
2022-08-23T23:37:37.642Z,16.50
2022-08-23T23:40:05.958Z,16.50
2022-08-23T23:42:32.761Z,16.50
2022-08-23T23:44:59.359Z,16.50
2022-08-23T23:47:26.100Z,16.50
2022-08-23T23:49:52.777Z,16.60
2022-08-23T23:52:19.445Z,16.50
2022-08-23T23:54:46.309Z,16.50
2022-08-23T23:57:13.183Z,16.40
2022-08-23T23:59:40.933Z,16.30
